KSAT/SAT METAR and TAF weather

Enter ICAO airport designator
Station Type Date Time Source
KSAT METAR 2019/08/21 02:51 UTC NOAA

KSAT 210251Z 13017G21KT 10SM FEW080 31/18 A2999 RMK AO2 SLP136 T03110178 53012


Station Type Date Time Source
KSAT Decoded METAR 2019/08/21 02:51 UTC NOAA

Station name not available
Aug 20, 2019 - 10:51 PM EDT / 2019.08.21 0251 UTC
Wind: from the SE (130 degrees) at 20 MPH (17 KT) gusting to 24 MPH (21 KT):0
Visibility: 10 mile(s):0
Sky conditions: mostly clear
Temperature: 88.0 F (31.1 C)
Dew Point: 64.0 F (17.8 C)
Relative Humidity: 45%
Pressure (altimeter): 29.99 in. Hg (1015 hPa)
Pressure tendency: 0.04 inches (1.2 hPa) higher than three hours ago
ob: KSAT 210251Z 13017G21KT 10SM FEW080 31/18 A2999 RMK AO2 SLP136 T03110178 53012
cycle: 3

Station Type Date Time Source
KSAT TAF 2019/08/20 18:42 UTC NOAA

TAF KSAT 201739Z 2018/2124 15006KT P6SM SCT040 SCT250
FM210900 18005KT P6SM BKN025
FM211400 18005KT P6SM SCT250
FM212100 14008KT P6SM SCT250

Example: see airport list